Time;durP1;ratioP1;P1;durP2;ratioP2;P2;SDS_P1;SDS_P2;PMS_P1;PMS_P2;Temp;Humidity;BMP_temperature;BMP_pressure;BME280_temperature;BME280_humidity;BME280_pressure;Samples;Min_cycle;Max_cycle;Signal;HPM_P1;HPM_P2
2022/08/16 00:01:51;;;;;;;;;;;22.90;99.90;;;;;;5009782;28;20117;-63
2022/08/16 00:04:20;;;;;;;;;;;22.90;99.90;;;;;;5011860;28;21228;-63
2022/08/16 00:06:48;;;;;;;;;;;23.00;99.90;;;;;;5008426;28;20521;-64
2022/08/16 00:09:16;;;;;;;;;;;23.10;99.90;;;;;;5012005;28;20701;-63
2022/08/16 00:11:44;;;;;;;;;;;23.10;99.90;;;;;;5010595;28;20264;-63
2022/08/16 00:14:14;;;;;;;;;;;23.10;99.90;;;;;;5014835;28;20678;-64
2022/08/16 00:16:43;;;;;;;;;;;22.90;99.90;;;;;;5006021;28;21152;-63
2022/08/16 00:19:33;;;;;;;;;;;22.70;99.90;;;;;;4996907;28;20111;-63
2022/08/16 00:22:08;;;;;;;;;;;22.50;99.90;;;;;;5008066;28;25145;-64
2022/08/16 00:24:42;;;;;;;;;;;22.40;99.90;;;;;;5008061;28;20358;-63
2022/08/16 00:27:14;;;;;;;;;;;22.20;99.90;;;;;;5006296;28;20683;-64
2022/08/16 00:29:43;;;;;;;;;;;22.10;99.90;;;;;;5010184;28;20662;-64
2022/08/16 00:32:12;;;;;;;;;;;22.00;99.90;;;;;;5008849;28;20395;-63
2022/08/16 00:34:46;;;;;;;;;;;22.00;99.90;;;;;;5006875;28;20082;-64
2022/08/16 00:37:21;;;;;;;;;;;22.00;99.90;;;;;;5008732;28;20351;-64
2022/08/16 00:39:52;;;;;;;;;;;21.80;99.90;;;;;;5010438;28;20671;-64
2022/08/16 00:42:27;;;;;;;;;;;21.60;99.90;;;;;;5008553;28;20084;-64
2022/08/16 00:45:01;;;;;;;;;;;21.80;99.90;;;;;;5008795;28;20349;-63
2022/08/16 00:47:36;;;;;;;;;;;22.10;99.90;;;;;;5010775;28;20639;-64
2022/08/16 00:50:06;;;;;;;;;;;22.10;99.90;;;;;;5010290;28;25071;-64
2022/08/16 00:52:38;;;;;;;;;;;22.00;99.90;;;;;;5008261;28;20218;-63
2022/08/16 00:55:19;;;;;;;;;;;22.00;99.90;;;;;;5006131;28;20326;-64
2022/08/16 00:57:49;;;;;;;;;;;21.80;99.90;;;;;;5010894;28;20374;-63
2022/08/16 01:00:28;;;;;;;;;;;21.80;99.90;;;;;;5010197;28;20306;-64
2022/08/16 01:02:57;;;;;;;;;;;21.70;99.90;;;;;;5008786;28;20040;-63
2022/08/16 01:05:27;;;;;;;;;;;21.70;99.90;;;;;;5008603;28;20034;-64
2022/08/16 01:07:56;;;;;;;;;;;21.60;99.90;;;;;;5006385;28;20024;-63
2022/08/16 01:10:26;;;;;;;;;;;21.60;99.90;;;;;;5006948;28;20128;-63
2022/08/16 01:13:02;;;;;;;;;;;21.50;99.90;;;;;;5007510;28;20011;-65
2022/08/16 01:15:33;;;;;;;;;;;21.70;99.90;;;;;;5008913;28;20077;-63
2022/08/16 01:18:01;;;;;;;;;;;21.70;99.90;;;;;;5008050;28;20009;-64
2022/08/16 01:20:32;;;;;;;;;;;21.60;99.90;;;;;;5010546;28;20073;-65
2022/08/16 01:23:03;;;;;;;;;;;21.60;99.90;;;;;;5011129;28;20375;-63
2022/08/16 01:25:38;;;;;;;;;;;21.50;99.90;;;;;;5006849;28;21132;-64
2022/08/16 01:28:09;;;;;;;;;;;21.40;99.90;;;;;;5006160;28;21271;-63
2022/08/16 01:30:48;;;;;;;;;;;21.40;99.90;;;;;;4999379;28;20478;-63
2022/08/16 01:33:17;;;;;;;;;;;21.70;99.90;;;;;;5007754;28;20792;-63
2022/08/16 01:35:48;;;;;;;;;;;21.80;99.90;;;;;;5005081;28;21432;-63
2022/08/16 01:38:20;;;;;;;;;;;21.70;99.90;;;;;;5001743;28;20050;-63
2022/08/16 01:40:55;;;;;;;;;;;21.60;99.90;;;;;;5008424;28;20312;-65
2022/08/16 01:43:23;;;;;;;;;;;21.50;99.90;;;;;;5007260;28;20004;-64
2022/08/16 01:45:53;;;;;;;;;;;21.50;99.90;;;;;;5009669;28;20001;-63
2022/08/16 01:48:26;;;;;;;;;;;21.60;99.90;;;;;;5009848;28;20680;-62
2022/08/16 01:50:54;;;;;;;;;;;21.80;99.90;;;;;;5005199;28;19981;-63
2022/08/16 01:53:42;;;;;;;;;;;22.00;99.90;;;;;;5006791;28;19974;-63
2022/08/16 01:56:11;;;;;;;;;;;22.10;99.90;;;;;;5006452;28;20037;-64
2022/08/16 01:58:53;;;;;;;;;;;22.10;99.90;;;;;;5005815;28;19977;-63
2022/08/16 02:01:21;;;;;;;;;;;22.30;99.90;;;;;;5008296;28;20367;-63
2022/08/16 02:03:49;;;;;;;;;;;22.30;99.90;;;;;;5006859;28;19996;-63
2022/08/16 02:06:18;;;;;;;;;;;22.40;99.90;;;;;;5009015;28;19984;-64
2022/08/16 02:09:01;;;;;;;;;;;22.20;99.90;;;;;;4998064;28;20067;-63
2022/08/16 02:11:34;;;;;;;;;;;22.00;99.90;;;;;;5002774;28;19987;-63
2022/08/16 02:14:19;;;;;;;;;;;22.10;99.90;;;;;;5008425;28;20301;-63
2022/08/16 02:16:48;;;;;;;;;;;22.10;99.90;;;;;;5006022;28;20559;-63
2022/08/16 02:19:17;;;;;;;;;;;22.20;99.90;;;;;;5007801;28;19981;-63
2022/08/16 02:21:47;;;;;;;;;;;22.20;99.90;;;;;;5008110;28;20460;-63
2022/08/16 02:24:35;;;;;;;;;;;22.10;99.90;;;;;;5011327;28;20227;-63
2022/08/16 02:27:10;;;;;;;;;;;22.10;99.90;;;;;;5012308;28;20076;-63
2022/08/16 02:29:39;;;;;;;;;;;22.10;99.90;;;;;;5006557;28;19992;-63
2022/08/16 02:32:08;;;;;;;;;;;22.10;99.90;;;;;;5008052;28;21636;-63
2022/08/16 02:34:56;;;;;;;;;;;22.00;99.90;;;;;;5009158;28;20561;-63
2022/08/16 02:37:24;;;;;;;;;;;21.80;99.90;;;;;;5008102;28;19981;-63
2022/08/16 02:40:15;;;;;;;;;;;21.50;99.90;;;;;;5001541;28;20047;-64
2022/08/16 02:42:44;;;;;;;;;;;21.30;99.90;;;;;;5007739;28;20501;-63
2022/08/16 02:45:16;;;;;;;;;;;21.30;99.90;;;;;;5001230;28;19982;-63
2022/08/16 02:47:44;;;;;;;;;;;21.30;99.90;;;;;;5006045;28;20585;-63
2022/08/16 02:50:32;;;;;;;;;;;21.50;99.90;;;;;;5006502;28;20378;-63
2022/08/16 02:53:20;;;;;;;;;;;21.60;99.90;;;;;;5007524;28;20021;-63
2022/08/16 02:55:50;;;;;;;;;;;21.60;99.90;;;;;;5008095;28;20796;-63
2022/08/16 02:58:19;;;;;;;;;;;21.40;99.90;;;;;;5003814;28;19985;-63
2022/08/16 03:00:52;;;;;;;;;;;21.20;99.90;;;;;;5003366;28;20170;-65
2022/08/16 03:03:23;;;;;;;;;;;21.40;99.90;;;;;;5003860;28;19966;-63
2022/08/16 03:05:51;;;;;;;;;;;21.30;99.90;;;;;;5008270;28;19997;-63
2022/08/16 03:08:20;;;;;;;;;;;21.40;99.90;;;;;;5007819;28;19977;-62
2022/08/16 03:11:08;;;;;;;;;;;21.50;99.90;;;;;;5005016;28;25136;-63
2022/08/16 03:13:51;;;;;;;;;;;21.30;99.90;;;;;;5004808;28;20236;-63
2022/08/16 03:16:23;;;;;;;;;;;21.30;99.90;;;;;;5000653;28;20406;-63
2022/08/16 03:19:09;;;;;;;;;;;21.40;99.90;;;;;;5004238;28;19976;-63
2022/08/16 03:21:37;;;;;;;;;;;21.70;99.90;;;;;;5007069;28;20039;-63
2022/08/16 03:24:06;;;;;;;;;;;21.60;99.90;;;;;;5008667;28;20016;-64
2022/08/16 03:26:54;;;;;;;;;;;21.70;99.90;;;;;;5000774;28;20448;-64
2022/08/16 03:29:27;;;;;;;;;;;21.90;99.90;;;;;;5008854;28;19978;-62
2022/08/16 03:31:57;;;;;;;;;;;21.90;99.90;;;;;;5009527;28;19979;-63
2022/08/16 03:34:26;;;;;;;;;;;21.90;99.90;;;;;;5006936;28;19972;-64
2022/08/16 03:36:54;;;;;;;;;;;21.50;99.90;;;;;;4998114;28;20398;-64
2022/08/16 03:39:22;;;;;;;;;;;21.20;99.90;;;;;;5011445;28;20045;-63
2022/08/16 03:41:50;;;;;;;;;;;21.00;99.90;;;;;;5006626;28;19971;-63
2022/08/16 03:44:28;;;;;;;;;;;21.10;99.90;;;;;;5006243;28;20021;-64
2022/08/16 03:47:16;;;;;;;;;;;21.40;99.90;;;;;;5004945;28;19983;-63
2022/08/16 03:49:46;;;;;;;;;;;21.40;99.90;;;;;;5008657;28;19973;-63
2022/08/16 03:52:19;;;;;;;;;;;21.60;99.90;;;;;;5005663;28;20018;-63
2022/08/16 03:54:49;;;;;;;;;;;21.40;99.90;;;;;;5028741;22;19968;-64
2022/08/16 03:57:24;;;;;;;;;;;21.60;99.90;;;;;;5023347;28;19982;-64
2022/08/16 04:00:11;;;;;;;;;;;21.40;99.90;;;;;;5027083;28;19983;-64
2022/08/16 04:03:01;;;;;;;;;;;21.20;99.90;;;;;;5024505;28;20400;-64
2022/08/16 04:05:32;;;;;;;;;;;21.00;99.90;;;;;;5024633;28;19982;-64
2022/08/16 04:08:01;;;;;;;;;;;20.90;99.90;;;;;;5027561;28;19971;-64
2022/08/16 04:10:49;;;;;;;;;;;21.10;99.90;;;;;;5029993;28;20091;-64
2022/08/16 04:13:18;;;;;;;;;;;21.30;99.90;;;;;;5026413;28;20059;-64
2022/08/16 04:16:08;;;;;;;;;;;21.30;99.90;;;;;;5031070;28;19973;-63
2022/08/16 04:18:53;;;;;;;;;;;21.30;99.90;;;;;;5032198;28;20020;-64
2022/08/16 04:21:29;;;;;;;;;;;21.30;99.90;;;;;;5024646;28;20021;-65
2022/08/16 04:23:58;;;;;;;;;;;21.60;99.90;;;;;;5029370;28;20008;-66
2022/08/16 04:26:26;;;;;;;;;;;21.40;99.90;;;;;;5021394;28;20484;-66
2022/08/16 04:28:59;;;;;;;;;;;21.30;99.90;;;;;;5022117;28;20425;-65
2022/08/16 04:31:49;;;;;;;;;;;21.30;99.90;;;;;;5021936;28;20005;-65
2022/08/16 04:34:25;;;;;;;;;;;21.50;99.90;;;;;;5020400;28;19974;-65
2022/08/16 04:36:53;;;;;;;;;;;21.60;99.90;;;;;;5020632;28;20520;-65
2022/08/16 04:39:21;;;;;;;;;;;21.50;99.90;;;;;;5017665;28;19975;-65
2022/08/16 04:41:51;;;;;;;;;;;21.30;99.90;;;;;;5020135;28;20096;-65
2022/08/16 04:44:24;;;;;;;;;;;21.20;99.90;;;;;;5020456;28;19984;-65
2022/08/16 04:47:13;;;;;;;;;;;21.20;99.90;;;;;;5019565;28;19970;-67
2022/08/16 04:49:50;;;;;;;;;;;21.10;99.90;;;;;;5018484;28;19977;-65
2022/08/16 04:52:19;;;;;;;;;;;21.00;99.90;;;;;;5020269;28;20038;-67
2022/08/16 04:55:01;;;;;;;;;;;21.00;99.90;;;;;;5020492;28;20076;-65
2022/08/16 04:57:30;;;;;;;;;;;21.20;99.90;;;;;;5020652;28;20055;-65
2022/08/16 04:59:58;;;;;;;;;;;21.30;99.90;;;;;;5020547;28;20052;-65
2022/08/16 05:02:48;;;;;;;;;;;21.10;99.90;;;;;;5019246;28;20101;-65
2022/08/16 05:05:23;;;;;;;;;;;21.10;99.90;;;;;;5018826;28;20072;-64
2022/08/16 05:07:51;;;;;;;;;;;21.30;99.90;;;;;;5019120;28;19976;-65
2022/08/16 05:10:27;;;;;;;;;;;21.60;99.90;;;;;;5020496;28;19967;-65
2022/08/16 05:12:56;;;;;;;;;;;21.70;99.90;;;;;;5016801;28;20478;-65
2022/08/16 05:15:24;;;;;;;;;;;21.60;99.90;;;;;;5018258;28;20405;-65
2022/08/16 05:17:53;;;;;;;;;;;21.60;99.90;;;;;;5016913;28;19985;-65
2022/08/16 05:20:26;;;;;;;;;;;21.50;99.90;;;;;;5020153;28;20016;-64
2022/08/16 05:23:15;;;;;;;;;;;21.30;99.90;;;;;;5018582;28;19967;-65
2022/08/16 05:25:43;;;;;;;;;;;21.20;99.90;;;;;;5021457;28;19972;-65
2022/08/16 05:28:15;;;;;;;;;;;21.20;99.90;;;;;;5018403;28;19980;-64
2022/08/16 05:30:43;;;;;;;;;;;21.40;99.90;;;;;;5020288;28;19999;-65
2022/08/16 05:33:12;;;;;;;;;;;21.60;99.90;;;;;;5017870;28;19985;-65
2022/08/16 05:35:43;;;;;;;;;;;21.80;99.90;;;;;;5017613;28;19969;-65
2022/08/16 05:38:26;;;;;;;;;;;21.80;99.90;;;;;;5017861;28;19974;-65
2022/08/16 05:41:00;;;;;;;;;;;22.00;99.90;;;;;;5019453;28;20154;-66
2022/08/16 05:43:28;;;;;;;;;;;21.90;99.90;;;;;;5018904;28;20568;-64
2022/08/16 05:46:10;;;;;;;;;;;21.80;99.90;;;;;;5017788;28;20975;-66
2022/08/16 05:48:59;;;;;;;;;;;21.50;99.90;;;;;;5018755;28;20015;-64
2022/08/16 05:51:35;;;;;;;;;;;21.30;99.90;;;;;;5018163;28;20020;-66
2022/08/16 05:54:06;;;;;;;;;;;20.90;99.90;;;;;;5017672;28;20136;-66
2022/08/16 05:56:34;;;;;;;;;;;20.90;99.90;;;;;;5015410;28;20599;-67
2022/08/16 05:59:04;;;;;;;;;;;20.90;99.90;;;;;;5015557;28;20101;-66
2022/08/16 06:01:33;;;;;;;;;;;20.60;99.90;;;;;;5017444;28;21094;-67
2022/08/16 06:04:07;;;;;;;;;;;20.30;99.90;;;;;;5017935;28;20071;-67
2022/08/16 06:06:55;;;;;;;;;;;20.30;99.90;;;;;;5018855;28;20257;-66
2022/08/16 06:09:25;;;;;;;;;;;20.20;99.90;;;;;;5016982;28;20635;-67
2022/08/16 06:12:10;;;;;;;;;;;20.50;99.90;;;;;;5028418;28;20056;-67
2022/08/16 06:14:38;;;;;;;;;;;20.40;99.90;;;;;;5030416;28;20002;-67
2022/08/16 06:17:06;;;;;;;;;;;20.50;99.90;;;;;;5031981;28;20039;-68
2022/08/16 06:19:35;;;;;;;;;;;20.50;99.90;;;;;;5030750;28;19975;-68
2022/08/16 06:22:08;;;;;;;;;;;20.40;99.90;;;;;;5018457;28;20006;-66
2022/08/16 06:24:46;;;;;;;;;;;20.40;99.90;;;;;;5023626;28;20022;-65
2022/08/16 06:27:22;;;;;;;;;;;20.40;99.90;;;;;;5031386;28;19965;-67
2022/08/16 06:29:50;;;;;;;;;;;20.70;99.90;;;;;;5030664;28;20437;-65
2022/08/16 06:32:18;;;;;;;;;;;20.80;99.90;;;;;;5028372;28;20096;-68
2022/08/16 06:34:56;;;;;;;;;;;20.90;99.90;;;;;;5026553;28;20047;-65
2022/08/16 06:37:29;;;;;;;;;;;21.00;99.90;;;;;;5024413;28;20407;-65
2022/08/16 06:40:04;;;;;;;;;;;20.90;99.90;;;;;;5031687;28;20041;-65
2022/08/16 06:42:42;;;;;;;;;;;21.00;99.90;;;;;;5031823;28;19976;-66
2022/08/16 06:45:20;;;;;;;;;;;21.00;99.90;;;;;;5032096;28;19983;-65
2022/08/16 06:47:50;;;;;;;;;;;20.90;99.90;;;;;;5032005;28;20437;-65
2022/08/16 06:50:23;;;;;;;;;;;20.90;99.90;;;;;;5031841;28;19975;-65
2022/08/16 06:52:56;;;;;;;;;;;21.00;99.90;;;;;;5027326;28;20369;-65
2022/08/16 06:55:28;;;;;;;;;;;21.00;99.90;;;;;;5031411;28;20418;-65
2022/08/16 06:58:01;;;;;;;;;;;20.90;99.90;;;;;;5031891;28;19973;-65
2022/08/16 07:00:36;;;;;;;;;;;21.00;99.90;;;;;;5031745;28;19974;-65
2022/08/16 07:03:09;;;;;;;;;;;21.10;99.90;;;;;;5031557;28;19977;-65
2022/08/16 07:05:56;;;;;;;;;;;21.30;99.90;;;;;;5031950;28;20004;-65
2022/08/16 07:08:25;;;;;;;;;;;21.40;99.90;;;;;;5032165;28;19979;-65
2022/08/16 07:10:54;;;;;;;;;;;21.50;99.90;;;;;;5031409;28;20327;-65
2022/08/16 07:13:22;;;;;;;;;;;21.60;99.90;;;;;;5030086;28;19969;-65
2022/08/16 07:16:13;;;;;;;;;;;21.70;99.90;;;;;;5031867;28;20055;-65
2022/08/16 07:18:42;;;;;;;;;;;21.90;99.90;;;;;;5012078;28;20119;-65
2022/08/16 07:21:27;;;;;;;;;;;22.00;99.90;;;;;;5011656;28;19996;-65
2022/08/16 07:24:12;;;;;;;;;;;22.10;99.90;;;;;;5011847;28;19978;-65
2022/08/16 07:26:57;;;;;;;;;;;22.30;99.90;;;;;;5011935;28;20468;-65
2022/08/16 07:29:25;;;;;;;;;;;22.40;99.90;;;;;;5011831;28;20041;-65
2022/08/16 07:31:58;;;;;;;;;;;22.50;99.90;;;;;;5013253;28;20480;-64
2022/08/16 07:34:27;;;;;;;;;;;22.40;99.90;;;;;;5031581;28;20122;-64
2022/08/16 07:37:06;;;;;;;;;;;22.50;99.90;;;;;;5031468;28;20833;-65
2022/08/16 07:39:34;;;;;;;;;;;22.50;99.90;;;;;;5031596;28;20055;-65
2022/08/16 07:42:10;;;;;;;;;;;22.80;99.90;;;;;;5032593;28;20261;-65
2022/08/16 07:44:55;;;;;;;;;;;22.90;99.90;;;;;;5035408;28;20021;-65
2022/08/16 07:47:23;;;;;;;;;;;23.00;99.90;;;;;;5028550;28;20075;-64
2022/08/16 07:49:58;;;;;;;;;;;23.10;99.90;;;;;;5026739;28;20010;-65
2022/08/16 07:52:33;;;;;;;;;;;23.20;99.90;;;;;;5028528;28;20231;-65
2022/08/16 07:55:06;;;;;;;;;;;23.40;99.90;;;;;;5015133;28;20356;-65
2022/08/16 07:57:33;;;;;;;;;;;23.50;99.90;;;;;;5015393;28;20338;-65
2022/08/16 08:00:12;;;;;;;;;;;23.70;99.90;;;;;;5015154;28;20476;-63
2022/08/16 08:02:45;;;;;;;;;;;23.70;99.90;;;;;;5015037;28;20334;-65
2022/08/16 08:05:13;;;;;;;;;;;23.70;99.90;;;;;;5015157;28;20763;-65
2022/08/16 08:07:43;;;;;;;;;;;23.80;99.90;;;;;;5017334;28;20037;-65
2022/08/16 08:10:11;;;;;;;;;;;23.90;99.90;;;;;;5034724;28;20580;-65
2022/08/16 08:12:56;;;;;;;;;;;24.10;99.90;;;;;;5034668;28;20744;-65
2022/08/16 08:15:26;;;;;;;;;;;24.20;99.90;;;;;;5034580;28;20621;-65
2022/08/16 08:18:01;;;;;;;;;;;24.20;99.90;;;;;;5034734;28;20532;-65
2022/08/16 08:20:49;;;;;;;;;;;24.20;99.90;;;;;;5034321;28;20522;-65
2022/08/16 08:23:27;;;;;;;;;;;24.50;99.90;;;;;;5034516;28;20022;-65
2022/08/16 08:25:55;;;;;;;;;;;24.50;99.90;;;;;;5033337;28;20513;-65
2022/08/16 08:28:23;;;;;;;;;;;24.50;99.90;;;;;;5028746;28;20389;-65
2022/08/16 08:30:52;;;;;;;;;;;24.70;99.90;;;;;;5014441;28;20480;-65
2022/08/16 08:33:30;;;;;;;;;;;24.60;99.90;;;;;;5014528;28;20135;-65
2022/08/16 08:35:58;;;;;;;;;;;24.70;99.90;;;;;;5014709;28;20824;-65
2022/08/16 08:38:29;;;;;;;;;;;24.90;99.90;;;;;;5014638;28;21415;-65
2022/08/16 08:41:11;;;;;;;;;;;25.10;99.90;;;;;;5014692;28;20610;-64
2022/08/16 08:43:40;;;;;;;;;;;25.30;99.90;;;;;;5016783;28;20678;-65
2022/08/16 08:46:08;;;;;;;;;;;25.60;99.90;;;;;;5034574;28;20098;-65
2022/08/16 08:48:47;;;;;;;;;;;25.80;99.90;;;;;;5034047;28;25114;-65
2022/08/16 08:51:29;;;;;;;;;;;26.00;99.90;;;;;;5033995;28;20339;-65
2022/08/16 08:54:07;;;;;;;;;;;26.20;99.90;;;;;;5033662;28;20193;-65
2022/08/16 08:56:36;;;;;;;;;;;26.30;99.90;;;;;;5033712;28;20406;-65
2022/08/16 08:59:12;;;;;;;;;;;26.40;99.90;;;;;;5034204;28;20510;-65
2022/08/16 09:01:47;;;;;;;;;;;26.60;99.90;;;;;;5033829;28;20422;-65
2022/08/16 09:04:25;;;;;;;;;;;26.90;99.90;;;;;;5031747;28;20869;-65
2022/08/16 09:06:53;;;;;;;;;;;27.20;99.90;;;;;;5017300;28;20589;-65
2022/08/16 09:09:22;;;;;;;;;;;27.30;99.90;;;;;;5013831;28;20174;-65
2022/08/16 09:11:51;;;;;;;;;;;27.40;99.90;;;;;;5013768;28;20442;-65
2022/08/16 09:14:26;;;;;;;;;;;27.40;99.90;;;;;;5013716;28;20190;-65
2022/08/16 09:16:54;;;;;;;;;;;27.20;99.90;;;;;;5013714;28;20723;-65
2022/08/16 09:19:32;;;;;;;;;;;27.20;99.90;;;;;;5013463;28;25091;-65
2022/08/16 09:22:01;;;;;;;;;;;27.50;99.90;;;;;;5013682;28;20181;-65
2022/08/16 09:24:30;;;;;;;;;;;27.50;99.90;;;;;;5013410;28;20775;-65
2022/08/16 09:27:18;;;;;;;;;;;27.70;99.90;;;;;;5013465;28;20458;-65
2022/08/16 09:29:46;;;;;;;;;;;28.00;99.90;;;;;;5013360;28;20129;-65
2022/08/16 09:32:27;;;;;;;;;;;28.20;99.90;;;;;;5013471;28;21407;-65
2022/08/16 09:34:58;;;;;;;;;;;28.50;99.90;;;;;;5013394;28;20214;-65
2022/08/16 09:37:26;;;;;;;;;;;28.70;99.90;;;;;;5013496;28;20249;-66
2022/08/16 09:39:58;;;;;;;;;;;28.40;99.90;;;;;;5013171;28;20259;-65
2022/08/16 09:42:27;;;;;;;;;;;28.40;99.90;;;;;;5013435;28;20211;-65
2022/08/16 09:44:55;;;;;;;;;;;28.50;99.90;;;;;;5013272;28;20283;-65
2022/08/16 09:47:43;;;;;;;;;;;28.50;99.90;;;;;;5013401;28;20304;-65
2022/08/16 09:50:28;;;;;;;;;;;28.60;99.90;;;;;;5013064;28;20310;-65
2022/08/16 09:53:08;;;;;;;;;;;28.60;99.90;;;;;;5013290;28;20385;-65
2022/08/16 09:55:46;;;;;;;;;;;28.80;99.90;;;;;;5029808;23;20272;-63
2022/08/16 09:58:17;;;;;;;;;;;28.90;99.90;;;;;;5032104;28;20721;-63
2022/08/16 10:01:05;;;;;;;;;;;29.20;99.60;;;;;;5031883;28;25138;-64
2022/08/16 10:03:35;;;;;;;;;;;29.70;99.60;;;;;;5032693;28;20125;-64
2022/08/16 10:06:03;;;;;;;;;;;30.00;99.50;;;;;;5025913;28;20286;-63
2022/08/16 10:08:31;;;;;;;;;;;29.40;99.50;;;;;;5012722;28;21099;-64
2022/08/16 10:14:17;;;;;;;;;;;28.70;99.90;;;;;;5012774;28;20101;-63
2022/08/16 10:16:52;;;;;;;;;;;28.60;99.90;;;;;;5012862;28;20083;-63
2022/08/16 10:19:29;;;;;;;;;;;28.80;99.80;;;;;;5012719;28;20265;-64
2022/08/16 10:21:58;;;;;;;;;;;29.30;99.50;;;;;;5012435;28;20243;-64
2022/08/16 10:24:32;;;;;;;;;;;29.40;98.70;;;;;;5012567;28;25146;-64
2022/08/16 10:27:01;;;;;;;;;;;29.60;98.30;;;;;;5012678;28;20090;-63
2022/08/16 10:29:49;;;;;;;;;;;29.90;98.30;;;;;;5012139;28;20266;-64
2022/08/16 10:32:28;;;;;;;;;;;30.30;98.60;;;;;;5012683;28;20210;-64
2022/08/16 10:34:57;;;;;;;;;;;30.60;97.50;;;;;;5012381;28;25095;-63
2022/08/16 10:37:25;;;;;;;;;;;30.70;96.70;;;;;;5012300;28;21221;-64
2022/08/16 10:40:04;;;;;;;;;;;30.90;96.60;;;;;;5011758;28;20894;-64
2022/08/16 10:42:34;;;;;;;;;;;31.10;96.10;;;;;;5012443;28;20436;-63
2022/08/16 10:45:02;;;;;;;;;;;31.00;96.10;;;;;;5012251;28;20539;-64
2022/08/16 10:47:31;;;;;;;;;;;31.00;95.90;;;;;;5011589;28;20145;-64
2022/08/16 10:50:06;;;;;;;;;;;30.90;95.80;;;;;;5011772;28;20874;-64
2022/08/16 10:52:46;;;;;;;;;;;30.80;96.20;;;;;;5012481;28;20151;-64
2022/08/16 10:55:16;;;;;;;;;;;31.00;96.10;;;;;;5012482;28;20491;-64
2022/08/16 10:58:06;;;;;;;;;;;31.30;95.70;;;;;;5012350;28;20173;-63
2022/08/16 11:00:39;;;;;;;;;;;32.00;94.50;;;;;;5011651;28;20271;-64
2022/08/16 11:03:08;;;;;;;;;;;32.00;94.40;;;;;;5011687;28;20438;-64
2022/08/16 11:05:56;;;;;;;;;;;31.90;94.20;;;;;;5012153;28;20709;-64
2022/08/16 11:08:30;;;;;;;;;;;31.80;94.20;;;;;;5012001;28;20243;-64
2022/08/16 11:11:03;;;;;;;;;;;31.70;94.20;;;;;;5011915;28;20463;-64
2022/08/16 11:13:41;;;;;;;;;;;31.80;94.20;;;;;;5012078;28;25098;-64
2022/08/16 11:16:29;;;;;;;;;;;32.20;93.90;;;;;;5013603;28;21010;-64
2022/08/16 11:19:17;;;;;;;;;;;32.30;93.40;;;;;;5015804;28;20216;-64
2022/08/16 11:21:45;;;;;;;;;;;32.50;92.90;;;;;;5015125;28;21203;-64
2022/08/16 11:24:38;;;;;;;;;;;32.30;93.20;;;;;;5015781;28;20647;-64
2022/08/16 11:27:11;;;;;;;;;;;32.10;93.00;;;;;;5015918;28;20891;-63
2022/08/16 11:29:53;;;;;;;;;;;31.90;93.30;;;;;;5015625;28;21061;-64
2022/08/16 11:32:23;;;;;;;;;;;32.00;92.40;;;;;;5015938;28;20727;-63
2022/08/16 11:34:59;;;;;;;;;;;31.90;92.70;;;;;;5015843;28;20331;-64
2022/08/16 11:37:42;;;;;;;;;;;31.60;92.80;;;;;;5015279;28;20290;-63
2022/08/16 11:40:31;;;;;;;;;;;31.50;93.00;;;;;;5015263;28;20735;-64
2022/08/16 11:43:00;;;;;;;;;;;31.20;93.10;;;;;;5015676;28;20245;-64
2022/08/16 11:45:29;;;;;;;;;;;31.10;93.10;;;;;;5015366;28;25140;-66
2022/08/16 11:48:01;;;;;;;;;;;31.40;92.80;;;;;;5015616;28;20323;-64
2022/08/16 11:50:32;;;;;;;;;;;32.00;92.70;;;;;;5015047;28;20206;-64
2022/08/16 11:53:00;;;;;;;;;;;32.40;92.10;;;;;;5015081;28;25063;-64
2022/08/16 11:55:30;;;;;;;;;;;32.80;92.60;;;;;;5014649;28;21106;-64
2022/08/16 11:58:00;;;;;;;;;;;33.30;91.40;;;;;;5014698;28;20519;-64
2022/08/16 12:00:30;;;;;;;;;;;33.50;91.50;;;;;;5014795;28;25076;-64
2022/08/16 12:03:18;;;;;;;;;;;33.50;90.10;;;;;;5015368;28;20115;-64
2022/08/16 12:05:56;;;;;;;;;;;33.10;90.30;;;;;;5015115;28;21206;-64
2022/08/16 12:08:24;;;;;;;;;;;32.90;90.30;;;;;;5015127;28;20919;-64
2022/08/16 12:10:54;;;;;;;;;;;32.70;90.80;;;;;;5014208;28;20432;-64
2022/08/16 12:13:26;;;;;;;;;;;32.60;91.00;;;;;;5015041;28;20228;-64
2022/08/16 12:15:55;;;;;;;;;;;32.90;90.50;;;;;;5014578;28;25150;-63
2022/08/16 12:18:24;;;;;;;;;;;33.00;90.20;;;;;;5014917;28;20646;-64
2022/08/16 12:20:52;;;;;;;;;;;33.30;90.20;;;;;;5014175;28;20564;-64
2022/08/16 12:23:24;;;;;;;;;;;33.30;89.60;;;;;;5014961;28;25072;-64
2022/08/16 12:25:53;;;;;;;;;;;33.50;89.20;;;;;;5014745;28;20084;-64
2022/08/16 12:28:21;;;;;;;;;;;33.60;88.60;;;;;;5013231;28;20556;-64
2022/08/16 12:31:10;;;;;;;;;;;34.20;87.40;;;;;;5014289;28;20201;-65
2022/08/16 12:33:42;;;;;;;;;;;34.70;87.60;;;;;;5014817;28;20187;-64
2022/08/16 12:36:12;;;;;;;;;;;35.30;85.10;;;;;;5014697;28;20258;-64
2022/08/16 12:38:40;;;;;;;;;;;35.60;84.30;;;;;;5014567;28;20710;-64
2022/08/16 12:41:15;;;;;;;;;;;35.40;83.50;;;;;;5014153;28;20189;-64
2022/08/16 12:43:52;;;;;;;;;;;35.70;82.30;;;;;;5014563;28;20206;-64
2022/08/16 12:46:29;;;;;;;;;;;35.60;82.60;;;;;;5013816;28;20247;-64
2022/08/16 12:48:57;;;;;;;;;;;35.40;82.40;;;;;;5014402;28;20216;-64
2022/08/16 12:51:27;;;;;;;;;;;35.00;82.50;;;;;;5013793;28;25149;-64
2022/08/16 12:54:15;;;;;;;;;;;34.70;82.60;;;;;;5014602;28;20273;-64
2022/08/16 12:56:45;;;;;;;;;;;34.70;81.40;;;;;;5013555;28;20813;-64
2022/08/16 12:59:14;;;;;;;;;;;34.40;81.60;;;;;;5013965;28;20626;-64
2022/08/16 13:01:48;;;;;;;;;;;34.40;81.60;;;;;;5014347;28;25071;-64
2022/08/16 13:04:21;;;;;;;;;;;34.20;81.00;;;;;;5014145;28;21137;-64
2022/08/16 13:06:51;;;;;;;;;;;33.90;81.20;;;;;;5013854;28;20383;-64
2022/08/16 13:09:22;;;;;;;;;;;33.90;82.40;;;;;;5013506;28;25073;-64
2022/08/16 13:11:58;;;;;;;;;;;34.10;82.00;;;;;;5013894;28;20817;-64
2022/08/16 13:14:27;;;;;;;;;;;34.70;79.50;;;;;;5013803;28;20874;-64
2022/08/16 13:17:02;;;;;;;;;;;34.90;78.80;;;;;;5013847;28;20258;-64
2022/08/16 13:19:33;;;;;;;;;;;35.00;80.10;;;;;;5013067;28;25061;-63
2022/08/16 13:22:21;;;;;;;;;;;34.90;78.70;;;;;;5013631;28;21290;-64
2022/08/16 13:24:51;;;;;;;;;;;34.80;78.30;;;;;;5013608;28;20670;-63
2022/08/16 13:27:19;;;;;;;;;;;34.70;79.00;;;;;;5013486;28;20378;-65
2022/08/16 13:30:01;;;;;;;;;;;34.90;80.10;;;;;;5013108;28;25104;-64
2022/08/16 13:32:50;;;;;;;;;;;35.40;79.70;;;;;;5013654;28;20031;-64
2022/08/16 13:35:18;;;;;;;;;;;36.10;77.00;;;;;;5013341;28;20721;-64
2022/08/16 13:37:46;;;;;;;;;;;36.50;76.70;;;;;;5012746;28;25098;-64
2022/08/16 13:40:15;;;;;;;;;;;37.10;75.40;;;;;;5013115;28;20439;-64
2022/08/16 13:42:48;;;;;;;;;;;37.30;74.10;;;;;;5013676;28;20440;-64
2022/08/16 13:45:16;;;;;;;;;;;37.10;72.90;;;;;;5013068;28;25139;-64
2022/08/16 13:47:47;;;;;;;;;;;37.20;73.60;;;;;;5013144;28;20280;-64
2022/08/16 13:50:21;;;;;;;;;;;37.30;72.00;;;;;;5013128;28;20490;-64
2022/08/16 13:53:09;;;;;;;;;;;37.70;72.20;;;;;;5012935;28;20390;-65
2022/08/16 13:55:38;;;;;;;;;;;37.90;72.00;;;;;;5012364;28;25114;-64
2022/08/16 13:58:08;;;;;;;;;;;38.10;70.80;;;;;;5014039;28;20190;-65
2022/08/16 14:00:56;;;;;;;;;;;37.90;70.60;;;;;;5013345;28;20674;-66
2022/08/16 14:03:28;;;;;;;;;;;36.90;70.80;;;;;;5014090;28;20703;-65
2022/08/16 14:05:58;;;;;;;;;;;36.20;71.40;;;;;;5012732;28;25160;-64
2022/08/16 14:08:26;;;;;;;;;;;35.70;72.00;;;;;;5012810;28;19959;-64
2022/08/16 14:10:54;;;;;;;;;;;35.20;72.40;;;;;;5012373;28;19998;-65
2022/08/16 14:13:22;;;;;;;;;;;35.60;71.90;;;;;;5012747;28;19981;-64
2022/08/16 14:15:51;;;;;;;;;;;35.70;72.00;;;;;;5012666;28;20191;-64
2022/08/16 14:18:19;;;;;;;;;;;35.30;71.40;;;;;;5012468;28;25064;-65
2022/08/16 14:20:47;;;;;;;;;;;35.40;72.10;;;;;;5012278;28;19946;-64
2022/08/16 14:23:19;;;;;;;;;;;35.50;71.70;;;;;;5012217;28;19985;-64
2022/08/16 14:25:51;;;;;;;;;;;35.80;71.20;;;;;;5012282;28;26140;-64
2022/08/16 14:28:21;;;;;;;;;;;36.10;70.90;;;;;;5012459;28;20830;-65
2022/08/16 14:30:52;;;;;;;;;;;36.60;71.50;;;;;;5011988;28;20645;-65
2022/08/16 14:33:20;;;;;;;;;;;37.10;70.70;;;;;;5012251;28;26133;-65
2022/08/16 14:35:49;;;;;;;;;;;36.90;69.70;;;;;;5012330;28;19993;-64
2022/08/16 14:38:20;;;;;;;;;;;36.90;70.10;;;;;;5012066;28;20629;-64
2022/08/16 14:40:51;;;;;;;;;;;37.00;69.40;;;;;;5011997;28;20789;-64
2022/08/16 14:43:22;;;;;;;;;;;37.20;68.70;;;;;;5012521;28;20115;-65
2022/08/16 14:45:50;;;;;;;;;;;36.80;69.60;;;;;;5012009;28;25082;-64
2022/08/16 14:48:21;;;;;;;;;;;36.40;69.00;;;;;;5012395;28;20093;-65
2022/08/16 14:50:53;;;;;;;;;;;35.70;69.90;;;;;;5011262;28;25087;-64
2022/08/16 14:53:24;;;;;;;;;;;35.60;70.50;;;;;;5012229;28;20245;-65
2022/08/16 14:55:53;;;;;;;;;;;35.90;68.70;;;;;;5011102;28;20307;-64
2022/08/16 14:58:23;;;;;;;;;;;35.90;68.90;;;;;;5012293;28;20688;-64